sensor_id;sensor_type;location;lat;lon;timestamp;temperature;humidity
16517;DHT22;8371;52.272;9.746;2023-08-06T00:00:26;17.80;69.40
16517;DHT22;8371;52.272;9.746;2023-08-06T00:02:51;17.70;69.40
16517;DHT22;8371;52.272;9.746;2023-08-06T00:05:17;17.80;69.50
16517;DHT22;8371;52.272;9.746;2023-08-06T00:07:45;17.80;69.70
16517;DHT22;8371;52.272;9.746;2023-08-06T00:10:11;17.80;69.50
16517;DHT22;8371;52.272;9.746;2023-08-06T00:12:37;17.80;69.30
16517;DHT22;8371;52.272;9.746;2023-08-06T00:15:03;17.70;69.10
16517;DHT22;8371;52.272;9.746;2023-08-06T00:17:29;17.70;68.90
16517;DHT22;8371;52.272;9.746;2023-08-06T00:19:54;17.70;68.90
16517;DHT22;8371;52.272;9.746;2023-08-06T00:22:20;17.70;69.10
16517;DHT22;8371;52.272;9.746;2023-08-06T00:24:45;17.60;69.00
16517;DHT22;8371;52.272;9.746;2023-08-06T00:27:11;17.60;69.60
16517;DHT22;8371;52.272;9.746;2023-08-06T00:29:37;17.60;69.90
16517;DHT22;8371;52.272;9.746;2023-08-06T00:32:03;17.60;70.10
16517;DHT22;8371;52.272;9.746;2023-08-06T00:34:29;17.60;70.40
16517;DHT22;8371;52.272;9.746;2023-08-06T00:36:54;17.60;70.40
16517;DHT22;8371;52.272;9.746;2023-08-06T00:39:20;17.50;70.00
16517;DHT22;8371;52.272;9.746;2023-08-06T00:41:46;17.50;70.10
16517;DHT22;8371;52.272;9.746;2023-08-06T00:44:11;17.50;69.80
16517;DHT22;8371;52.272;9.746;2023-08-06T00:46:38;17.50;70.10
16517;DHT22;8371;52.272;9.746;2023-08-06T00:49:04;17.50;70.40
16517;DHT22;8371;52.272;9.746;2023-08-06T00:51:30;17.50;70.60
16517;DHT22;8371;52.272;9.746;2023-08-06T00:53:56;17.50;70.90
16517;DHT22;8371;52.272;9.746;2023-08-06T00:56:22;17.50;71.90
16517;DHT22;8371;52.272;9.746;2023-08-06T01:03:58;17.50;71.40
16517;DHT22;8371;52.272;9.746;2023-08-06T01:06:35;17.50;71.40
16517;DHT22;8371;52.272;9.746;2023-08-06T01:09:01;17.50;71.50
16517;DHT22;8371;52.272;9.746;2023-08-06T01:11:57;17.50;71.60
16517;DHT22;8371;52.272;9.746;2023-08-06T01:14:24;17.40;71.60
16517;DHT22;8371;52.272;9.746;2023-08-06T01:16:51;17.40;72.40
16517;DHT22;8371;52.272;9.746;2023-08-06T01:19:18;17.40;71.80
16517;DHT22;8371;52.272;9.746;2023-08-06T01:21:43;17.40;71.80
16517;DHT22;8371;52.272;9.746;2023-08-06T01:24:10;17.40;71.80
16517;DHT22;8371;52.272;9.746;2023-08-06T01:26:45;17.40;71.70
16517;DHT22;8371;52.272;9.746;2023-08-06T01:29:23;17.40;71.90
16517;DHT22;8371;52.272;9.746;2023-08-06T01:31:51;17.40;71.60
16517;DHT22;8371;52.272;9.746;2023-08-06T01:34:21;17.30;71.60
16517;DHT22;8371;52.272;9.746;2023-08-06T01:36:47;17.40;71.80
16517;DHT22;8371;52.272;9.746;2023-08-06T01:39:13;17.40;71.90
16517;DHT22;8371;52.272;9.746;2023-08-06T01:41:39;17.30;71.90
16517;DHT22;8371;52.272;9.746;2023-08-06T01:44:05;17.30;72.30
16517;DHT22;8371;52.272;9.746;2023-08-06T01:46:30;17.30;72.20
16517;DHT22;8371;52.272;9.746;2023-08-06T01:48:56;17.30;72.20
16517;DHT22;8371;52.272;9.746;2023-08-06T01:51:22;17.30;72.30
16517;DHT22;8371;52.272;9.746;2023-08-06T01:53:47;17.30;72.30
16517;DHT22;8371;52.272;9.746;2023-08-06T01:56:13;17.30;72.50
16517;DHT22;8371;52.272;9.746;2023-08-06T01:58:39;17.30;72.70
16517;DHT22;8371;52.272;9.746;2023-08-06T02:01:04;17.30;72.80
16517;DHT22;8371;52.272;9.746;2023-08-06T02:03:30;17.30;72.80
16517;DHT22;8371;52.272;9.746;2023-08-06T02:05:56;17.30;72.90
16517;DHT22;8371;52.272;9.746;2023-08-06T02:08:21;17.30;72.90
16517;DHT22;8371;52.272;9.746;2023-08-06T02:10:47;17.30;73.00
16517;DHT22;8371;52.272;9.746;2023-08-06T02:13:13;17.30;73.00
16517;DHT22;8371;52.272;9.746;2023-08-06T02:15:47;17.30;73.10
16517;DHT22;8371;52.272;9.746;2023-08-06T02:18:11;17.30;73.10
16517;DHT22;8371;52.272;9.746;2023-08-06T02:20:36;17.20;73.00
16517;DHT22;8371;52.272;9.746;2023-08-06T02:23:02;17.20;73.10
16517;DHT22;8371;52.272;9.746;2023-08-06T02:25:28;17.20;73.20
16517;DHT22;8371;52.272;9.746;2023-08-06T02:27:53;17.10;73.30
16517;DHT22;8371;52.272;9.746;2023-08-06T02:30:19;17.10;73.40
16517;DHT22;8371;52.272;9.746;2023-08-06T02:32:45;17.10;73.50
16517;DHT22;8371;52.272;9.746;2023-08-06T02:35:10;17.00;73.50
16517;DHT22;8371;52.272;9.746;2023-08-06T02:37:36;17.00;73.50
16517;DHT22;8371;52.272;9.746;2023-08-06T02:40:02;17.00;73.60
16517;DHT22;8371;52.272;9.746;2023-08-06T02:42:28;16.90;73.60
16517;DHT22;8371;52.272;9.746;2023-08-06T02:44:54;16.90;73.70
16517;DHT22;8371;52.272;9.746;2023-08-06T02:47:23;16.90;73.80
16517;DHT22;8371;52.272;9.746;2023-08-06T02:49:49;16.80;73.70
16517;DHT22;8371;52.272;9.746;2023-08-06T02:52:15;16.80;73.70
16517;DHT22;8371;52.272;9.746;2023-08-06T02:54:40;16.80;73.70
16517;DHT22;8371;52.272;9.746;2023-08-06T02:57:06;16.70;73.80
16517;DHT22;8371;52.272;9.746;2023-08-06T02:59:32;16.70;73.80
16517;DHT22;8371;52.272;9.746;2023-08-06T03:01:58;16.60;73.90
16517;DHT22;8371;52.272;9.746;2023-08-06T03:04:23;16.60;73.90
16517;DHT22;8371;52.272;9.746;2023-08-06T03:06:50;16.60;74.00
16517;DHT22;8371;52.272;9.746;2023-08-06T03:09:16;16.60;74.10
16517;DHT22;8371;52.272;9.746;2023-08-06T03:11:42;16.60;74.20
16517;DHT22;8371;52.272;9.746;2023-08-06T03:14:08;16.60;74.40
16517;DHT22;8371;52.272;9.746;2023-08-06T03:16:34;16.50;74.40
16517;DHT22;8371;52.272;9.746;2023-08-06T03:18:59;16.50;74.50
16517;DHT22;8371;52.272;9.746;2023-08-06T03:21:25;16.50;74.50
16517;DHT22;8371;52.272;9.746;2023-08-06T03:23:51;16.50;74.50
16517;DHT22;8371;52.272;9.746;2023-08-06T03:26:16;16.50;74.50
16517;DHT22;8371;52.272;9.746;2023-08-06T03:28:42;16.40;74.50
16517;DHT22;8371;52.272;9.746;2023-08-06T03:31:08;16.50;74.70
16517;DHT22;8371;52.272;9.746;2023-08-06T03:33:33;16.50;74.60
16517;DHT22;8371;52.272;9.746;2023-08-06T03:35:59;16.40;75.40
16517;DHT22;8371;52.272;9.746;2023-08-06T03:38:25;16.40;74.80
16517;DHT22;8371;52.272;9.746;2023-08-06T03:40:51;16.40;74.80
16517;DHT22;8371;52.272;9.746;2023-08-06T03:43:17;16.40;75.00
16517;DHT22;8371;52.272;9.746;2023-08-06T03:45:42;16.40;75.10
16517;DHT22;8371;52.272;9.746;2023-08-06T03:48:08;16.40;75.20
16517;DHT22;8371;52.272;9.746;2023-08-06T03:50:34;16.40;75.30
16517;DHT22;8371;52.272;9.746;2023-08-06T03:53:00;16.40;75.40
16517;DHT22;8371;52.272;9.746;2023-08-06T03:55:25;16.40;75.70
16517;DHT22;8371;52.272;9.746;2023-08-06T03:57:51;16.40;75.70
16517;DHT22;8371;52.272;9.746;2023-08-06T04:00:17;16.40;75.80
16517;DHT22;8371;52.272;9.746;2023-08-06T04:02:43;16.40;75.70
16517;DHT22;8371;52.272;9.746;2023-08-06T04:05:09;16.40;75.70
16517;DHT22;8371;52.272;9.746;2023-08-06T04:07:34;16.40;75.70
16517;DHT22;8371;52.272;9.746;2023-08-06T04:10:03;16.40;75.60
16517;DHT22;8371;52.272;9.746;2023-08-06T04:12:29;16.40;75.40
16517;DHT22;8371;52.272;9.746;2023-08-06T04:14:57;16.30;75.20
16517;DHT22;8371;52.272;9.746;2023-08-06T04:17:23;16.30;75.10
16517;DHT22;8371;52.272;9.746;2023-08-06T04:19:54;16.30;75.20
16517;DHT22;8371;52.272;9.746;2023-08-06T04:22:21;16.20;75.20
16517;DHT22;8371;52.272;9.746;2023-08-06T04:24:47;16.20;75.40
16517;DHT22;8371;52.272;9.746;2023-08-06T04:27:14;16.20;75.60
16517;DHT22;8371;52.272;9.746;2023-08-06T04:29:40;16.10;75.90
16517;DHT22;8371;52.272;9.746;2023-08-06T04:32:08;16.10;76.00
16517;DHT22;8371;52.272;9.746;2023-08-06T04:34:35;16.20;76.20
16517;DHT22;8371;52.272;9.746;2023-08-06T04:37:02;16.10;76.30
16517;DHT22;8371;52.272;9.746;2023-08-06T04:39:29;16.20;76.60
16517;DHT22;8371;52.272;9.746;2023-08-06T04:41:56;16.20;76.80
16517;DHT22;8371;52.272;9.746;2023-08-06T04:44:23;16.20;77.60
16517;DHT22;8371;52.272;9.746;2023-08-06T04:46:49;16.30;77.00
16517;DHT22;8371;52.272;9.746;2023-08-06T04:49:14;16.30;77.20
16517;DHT22;8371;52.272;9.746;2023-08-06T04:51:40;16.30;77.30
16517;DHT22;8371;52.272;9.746;2023-08-06T04:54:06;16.40;77.40
16517;DHT22;8371;52.272;9.746;2023-08-06T04:56:31;16.40;77.30
16517;DHT22;8371;52.272;9.746;2023-08-06T04:58:58;16.40;77.20
16517;DHT22;8371;52.272;9.746;2023-08-06T05:01:31;16.50;77.20
16517;DHT22;8371;52.272;9.746;2023-08-06T05:04:05;16.50;77.20
16517;DHT22;8371;52.272;9.746;2023-08-06T05:06:34;16.50;77.10
16517;DHT22;8371;52.272;9.746;2023-08-06T05:09:05;16.50;77.20
16517;DHT22;8371;52.272;9.746;2023-08-06T05:11:39;16.60;77.40
16517;DHT22;8371;52.272;9.746;2023-08-06T05:14:09;16.60;77.60
16517;DHT22;8371;52.272;9.746;2023-08-06T05:16:39;16.70;77.90
16517;DHT22;8371;52.272;9.746;2023-08-06T05:19:04;16.80;78.10
16517;DHT22;8371;52.272;9.746;2023-08-06T05:21:30;17.00;78.30
16517;DHT22;8371;52.272;9.746;2023-08-06T05:23:56;16.90;78.50
16517;DHT22;8371;52.272;9.746;2023-08-06T05:26:21;17.00;78.70
16517;DHT22;8371;52.272;9.746;2023-08-06T05:28:47;17.10;78.80
16517;DHT22;8371;52.272;9.746;2023-08-06T05:31:13;17.20;78.80
16517;DHT22;8371;52.272;9.746;2023-08-06T05:33:39;17.30;78.80
16517;DHT22;8371;52.272;9.746;2023-08-06T05:36:04;17.40;78.80
16517;DHT22;8371;52.272;9.746;2023-08-06T05:38:30;17.50;78.80
16517;DHT22;8371;52.272;9.746;2023-08-06T05:40:56;17.60;78.70
16517;DHT22;8371;52.272;9.746;2023-08-06T05:43:22;17.80;78.80
16517;DHT22;8371;52.272;9.746;2023-08-06T05:45:51;17.80;78.80
16517;DHT22;8371;52.272;9.746;2023-08-06T05:48:17;17.90;78.90
16517;DHT22;8371;52.272;9.746;2023-08-06T05:50:43;18.00;79.00
16517;DHT22;8371;52.272;9.746;2023-08-06T05:53:09;18.10;79.20
16517;DHT22;8371;52.272;9.746;2023-08-06T05:55:34;18.30;79.20
16517;DHT22;8371;52.272;9.746;2023-08-06T05:58:01;18.40;79.40
16517;DHT22;8371;52.272;9.746;2023-08-06T06:00:26;18.50;79.40
16517;DHT22;8371;52.272;9.746;2023-08-06T06:02:52;18.70;79.50
16517;DHT22;8371;52.272;9.746;2023-08-06T06:05:18;18.80;79.50
16517;DHT22;8371;52.272;9.746;2023-08-06T06:07:43;18.90;79.40
16517;DHT22;8371;52.272;9.746;2023-08-06T06:10:09;19.10;79.40
16517;DHT22;8371;52.272;9.746;2023-08-06T06:12:35;19.20;79.30
16517;DHT22;8371;52.272;9.746;2023-08-06T06:15:01;19.40;79.20
16517;DHT22;8371;52.272;9.746;2023-08-06T06:17:27;19.50;79.10
16517;DHT22;8371;52.272;9.746;2023-08-06T06:19:53;19.60;78.90
16517;DHT22;8371;52.272;9.746;2023-08-06T06:22:18;19.80;78.80
16517;DHT22;8371;52.272;9.746;2023-08-06T06:24:44;19.90;78.80
16517;DHT22;8371;52.272;9.746;2023-08-06T06:27:10;20.10;78.70
16517;DHT22;8371;52.272;9.746;2023-08-06T06:29:35;20.20;78.60
16517;DHT22;8371;52.272;9.746;2023-08-06T06:32:01;20.30;78.60
16517;DHT22;8371;52.272;9.746;2023-08-06T06:34:27;20.50;78.50
16517;DHT22;8371;52.272;9.746;2023-08-06T06:36:52;20.70;78.10
16517;DHT22;8371;52.272;9.746;2023-08-06T06:39:18;20.80;78.00
16517;DHT22;8371;52.272;9.746;2023-08-06T06:41:44;20.90;77.80
16517;DHT22;8371;52.272;9.746;2023-08-06T06:44:09;21.10;77.30
16517;DHT22;8371;52.272;9.746;2023-08-06T06:46:36;21.30;76.90
16517;DHT22;8371;52.272;9.746;2023-08-06T06:49:01;21.40;76.80
16517;DHT22;8371;52.272;9.746;2023-08-06T06:51:27;21.60;76.70
16517;DHT22;8371;52.272;9.746;2023-08-06T06:53:53;21.70;77.10
16517;DHT22;8371;52.272;9.746;2023-08-06T06:56:18;21.90;76.20
16517;DHT22;8371;52.272;9.746;2023-08-06T06:58:44;22.10;76.00
16517;DHT22;8371;52.272;9.746;2023-08-06T07:01:10;22.20;75.50
16517;DHT22;8371;52.272;9.746;2023-08-06T07:03:37;22.40;75.40
16517;DHT22;8371;52.272;9.746;2023-08-06T07:06:03;22.50;75.00
16517;DHT22;8371;52.272;9.746;2023-08-06T07:08:29;22.70;74.80
16517;DHT22;8371;52.272;9.746;2023-08-06T07:11:02;22.80;74.40
16517;DHT22;8371;52.272;9.746;2023-08-06T07:13:28;23.00;74.00
16517;DHT22;8371;52.272;9.746;2023-08-06T07:16:14;23.10;73.70
16517;DHT22;8371;52.272;9.746;2023-08-06T07:18:39;23.20;73.50
16517;DHT22;8371;52.272;9.746;2023-08-06T07:21:05;23.40;73.10
16517;DHT22;8371;52.272;9.746;2023-08-06T07:23:31;23.50;72.50
16517;DHT22;8371;52.272;9.746;2023-08-06T07:25:56;23.60;72.20
16517;DHT22;8371;52.272;9.746;2023-08-06T07:28:22;23.70;72.10
16517;DHT22;8371;52.272;9.746;2023-08-06T07:30:48;23.80;72.00
16517;DHT22;8371;52.272;9.746;2023-08-06T07:33:14;24.00;72.30
16517;DHT22;8371;52.272;9.746;2023-08-06T07:35:40;24.10;72.90
16517;DHT22;8371;52.272;9.746;2023-08-06T07:38:06;24.30;71.70
16517;DHT22;8371;52.272;9.746;2023-08-06T07:40:31;24.40;71.50
16517;DHT22;8371;52.272;9.746;2023-08-06T07:42:57;24.50;71.30
16517;DHT22;8371;52.272;9.746;2023-08-06T07:45:24;24.70;71.30
16517;DHT22;8371;52.272;9.746;2023-08-06T07:47:49;24.90;71.00
16517;DHT22;8371;52.272;9.746;2023-08-06T07:50:16;25.10;71.30
16517;DHT22;8371;52.272;9.746;2023-08-06T07:52:42;25.30;70.90
16517;DHT22;8371;52.272;9.746;2023-08-06T07:55:08;25.50;70.30
16517;DHT22;8371;52.272;9.746;2023-08-06T07:57:34;25.60;70.00
16517;DHT22;8371;52.272;9.746;2023-08-06T08:00:00;25.80;70.20
16517;DHT22;8371;52.272;9.746;2023-08-06T08:02:26;26.00;68.60
16517;DHT22;8371;52.272;9.746;2023-08-06T08:04:52;26.10;68.30
16517;DHT22;8371;52.272;9.746;2023-08-06T08:07:18;26.20;68.00
16517;DHT22;8371;52.272;9.746;2023-08-06T08:09:43;26.20;67.80
16517;DHT22;8371;52.272;9.746;2023-08-06T08:12:09;26.30;67.40
16517;DHT22;8371;52.272;9.746;2023-08-06T08:14:35;26.40;68.30
16517;DHT22;8371;52.272;9.746;2023-08-06T08:17:04;26.40;67.00
16517;DHT22;8371;52.272;9.746;2023-08-06T08:19:31;26.50;66.70
16517;DHT22;8371;52.272;9.746;2023-08-06T08:21:58;26.60;67.00
16517;DHT22;8371;52.272;9.746;2023-08-06T08:24:23;26.60;66.40
16517;DHT22;8371;52.272;9.746;2023-08-06T08:26:51;26.60;66.20
16517;DHT22;8371;52.272;9.746;2023-08-06T08:29:16;26.70;65.70
16517;DHT22;8371;52.272;9.746;2023-08-06T08:31:42;26.80;65.50
16517;DHT22;8371;52.272;9.746;2023-08-06T08:34:09;26.80;65.20
16517;DHT22;8371;52.272;9.746;2023-08-06T08:36:34;26.80;65.00
16517;DHT22;8371;52.272;9.746;2023-08-06T08:39:00;26.80;64.60
16517;DHT22;8371;52.272;9.746;2023-08-06T08:41:30;26.70;64.50
16517;DHT22;8371;52.272;9.746;2023-08-06T08:43:58;26.70;64.30
16517;DHT22;8371;52.272;9.746;2023-08-06T08:46:27;26.50;64.40
16517;DHT22;8371;52.272;9.746;2023-08-06T08:48:55;26.70;64.70
16517;DHT22;8371;52.272;9.746;2023-08-06T08:51:21;26.70;64.80
16517;DHT22;8371;52.272;9.746;2023-08-06T08:53:51;26.70;64.80
16517;DHT22;8371;52.272;9.746;2023-08-06T08:56:17;26.80;64.50
16517;DHT22;8371;52.272;9.746;2023-08-06T08:58:44;26.80;64.40
16517;DHT22;8371;52.272;9.746;2023-08-06T09:01:11;26.90;64.30
16517;DHT22;8371;52.272;9.746;2023-08-06T09:03:37;27.00;64.40
16517;DHT22;8371;52.272;9.746;2023-08-06T09:06:04;26.90;64.50
16517;DHT22;8371;52.272;9.746;2023-08-06T09:11:23;27.20;64.30
16517;DHT22;8371;52.272;9.746;2023-08-06T09:14:02;27.40;63.90
16517;DHT22;8371;52.272;9.746;2023-08-06T09:16:31;27.50;63.60
16517;DHT22;8371;52.272;9.746;2023-08-06T09:19:07;27.60;63.70
16517;DHT22;8371;52.272;9.746;2023-08-06T09:21:38;27.70;63.40
16517;DHT22;8371;52.272;9.746;2023-08-06T09:24:12;27.90;63.30
16517;DHT22;8371;52.272;9.746;2023-08-06T09:26:40;28.00;63.00
16517;DHT22;8371;52.272;9.746;2023-08-06T09:29:07;28.10;62.80
16517;DHT22;8371;52.272;9.746;2023-08-06T09:31:44;28.30;62.70
16517;DHT22;8371;52.272;9.746;2023-08-06T09:34:21;28.40;62.60
16517;DHT22;8371;52.272;9.746;2023-08-06T09:36:49;28.60;62.40
16517;DHT22;8371;52.272;9.746;2023-08-06T09:39:29;28.70;62.20
16517;DHT22;8371;52.272;9.746;2023-08-06T09:41:57;28.90;61.20
16517;DHT22;8371;52.272;9.746;2023-08-06T09:44:24;29.00;61.30
16517;DHT22;8371;52.272;9.746;2023-08-06T09:46:55;29.20;61.10
16517;DHT22;8371;52.272;9.746;2023-08-06T09:49:27;29.40;60.50
16517;DHT22;8371;52.272;9.746;2023-08-06T09:51:53;29.50;59.90
16517;DHT22;8371;52.272;9.746;2023-08-06T09:54:24;29.60;59.50
16517;DHT22;8371;52.272;9.746;2023-08-06T09:56:53;29.80;59.40
16517;DHT22;8371;52.272;9.746;2023-08-06T09:59:19;29.90;59.30
16517;DHT22;8371;52.272;9.746;2023-08-06T10:01:45;30.00;59.00
16517;DHT22;8371;52.272;9.746;2023-08-06T10:04:13;30.20;59.10
16517;DHT22;8371;52.272;9.746;2023-08-06T10:06:42;30.30;58.70
16517;DHT22;8371;52.272;9.746;2023-08-06T10:09:09;30.50;57.70
16517;DHT22;8371;52.272;9.746;2023-08-06T10:11:39;30.60;56.00
16517;DHT22;8371;52.272;9.746;2023-08-06T10:14:13;30.60;56.60
16517;DHT22;8371;52.272;9.746;2023-08-06T10:16:41;30.80;57.00
16517;DHT22;8371;52.272;9.746;2023-08-06T10:19:10;30.90;56.80
16517;DHT22;8371;52.272;9.746;2023-08-06T10:21:38;31.00;56.40
16517;DHT22;8371;52.272;9.746;2023-08-06T10:24:09;31.10;56.10
16517;DHT22;8371;52.272;9.746;2023-08-06T10:26:36;31.20;55.70
16517;DHT22;8371;52.272;9.746;2023-08-06T10:31:54;31.40;53.50
16517;DHT22;8371;52.272;9.746;2023-08-06T10:34:20;31.30;53.00
16517;DHT22;8371;52.272;9.746;2023-08-06T10:36:46;31.30;52.90
16517;DHT22;8371;52.272;9.746;2023-08-06T10:39:15;31.20;52.90
16517;DHT22;8371;52.272;9.746;2023-08-06T10:41:44;31.20;52.90
16517;DHT22;8371;52.272;9.746;2023-08-06T10:44:11;31.20;52.00
16517;DHT22;8371;52.272;9.746;2023-08-06T10:46:37;31.20;51.20
16517;DHT22;8371;52.272;9.746;2023-08-06T10:49:04;31.00;50.80
16517;DHT22;8371;52.272;9.746;2023-08-06T10:51:29;30.80;51.20
16517;DHT22;8371;52.272;9.746;2023-08-06T10:53:56;30.60;51.50
16517;DHT22;8371;52.272;9.746;2023-08-06T10:56:24;30.60;51.80
16517;DHT22;8371;52.272;9.746;2023-08-06T10:58:54;30.60;52.20
16517;DHT22;8371;52.272;9.746;2023-08-06T11:01:23;30.60;52.20
16517;DHT22;8371;52.272;9.746;2023-08-06T11:03:49;30.60;51.90
16517;DHT22;8371;52.272;9.746;2023-08-06T11:06:20;30.60;51.80
16517;DHT22;8371;52.272;9.746;2023-08-06T11:08:50;30.60;51.80
16517;DHT22;8371;52.272;9.746;2023-08-06T11:11:17;30.60;51.40
16517;DHT22;8371;52.272;9.746;2023-08-06T11:13:44;30.60;51.60
16517;DHT22;8371;52.272;9.746;2023-08-06T11:16:22;30.60;51.30
16517;DHT22;8371;52.272;9.746;2023-08-06T11:18:45;30.50;51.10
16517;DHT22;8371;52.272;9.746;2023-08-06T11:21:11;30.50;51.30
16517;DHT22;8371;52.272;9.746;2023-08-06T11:23:37;30.60;51.40
16517;DHT22;8371;52.272;9.746;2023-08-06T11:26:04;30.60;50.60
16517;DHT22;8371;52.272;9.746;2023-08-06T11:28:30;30.60;50.60
16517;DHT22;8371;52.272;9.746;2023-08-06T11:30:55;30.60;50.80
16517;DHT22;8371;52.272;9.746;2023-08-06T11:33:26;30.70;50.60
16517;DHT22;8371;52.272;9.746;2023-08-06T11:35:58;30.70;50.40
16517;DHT22;8371;52.272;9.746;2023-08-06T11:38:20;30.70;50.50
16517;DHT22;8371;52.272;9.746;2023-08-06T11:40:45;30.80;50.30
16517;DHT22;8371;52.272;9.746;2023-08-06T11:43:12;30.80;49.60
16517;DHT22;8371;52.272;9.746;2023-08-06T11:45:38;30.80;49.80
16517;DHT22;8371;52.272;9.746;2023-08-06T11:48:05;30.90;49.50
16517;DHT22;8371;52.272;9.746;2023-08-06T11:50:31;31.00;49.90
16517;DHT22;8371;52.272;9.746;2023-08-06T11:53:00;31.20;50.30
16517;DHT22;8371;52.272;9.746;2023-08-06T11:55:27;31.40;50.00
16517;DHT22;8371;52.272;9.746;2023-08-06T11:57:54;31.60;49.80
16517;DHT22;8371;52.272;9.746;2023-08-06T12:00:23;31.60;49.30
16517;DHT22;8371;52.272;9.746;2023-08-06T12:02:49;31.90;49.30
16517;DHT22;8371;52.272;9.746;2023-08-06T12:05:17;32.00;49.00
16517;DHT22;8371;52.272;9.746;2023-08-06T12:07:45;32.20;48.20
16517;DHT22;8371;52.272;9.746;2023-08-06T12:10:12;32.30;48.10
16517;DHT22;8371;52.272;9.746;2023-08-06T12:12:38;32.50;48.30
16517;DHT22;8371;52.272;9.746;2023-08-06T12:15:05;32.60;48.10
16517;DHT22;8371;52.272;9.746;2023-08-06T12:17:32;32.70;47.70
16517;DHT22;8371;52.272;9.746;2023-08-06T12:19:58;32.80;47.30
16517;DHT22;8371;52.272;9.746;2023-08-06T12:22:24;33.10;47.10
16517;DHT22;8371;52.272;9.746;2023-08-06T12:24:50;32.90;46.60
16517;DHT22;8371;52.272;9.746;2023-08-06T12:27:16;32.90;46.40
16517;DHT22;8371;52.272;9.746;2023-08-06T12:29:44;32.90;46.00
16517;DHT22;8371;52.272;9.746;2023-08-06T12:32:11;32.80;45.40
16517;DHT22;8371;52.272;9.746;2023-08-06T12:34:41;32.60;45.20
16517;DHT22;8371;52.272;9.746;2023-08-06T12:37:08;32.40;45.10
16517;DHT22;8371;52.272;9.746;2023-08-06T12:39:35;32.20;45.50
16517;DHT22;8371;52.272;9.746;2023-08-06T12:42:02;32.00;45.60
16517;DHT22;8371;52.272;9.746;2023-08-06T12:44:28;31.80;45.50
16517;DHT22;8371;52.272;9.746;2023-08-06T12:46:54;31.60;45.40
16517;DHT22;8371;52.272;9.746;2023-08-06T12:49:20;31.50;45.30
16517;DHT22;8371;52.272;9.746;2023-08-06T12:51:49;31.30;45.40
16517;DHT22;8371;52.272;9.746;2023-08-06T12:54:19;31.00;45.40
16517;DHT22;8371;52.272;9.746;2023-08-06T12:56:46;30.70;45.80
16517;DHT22;8371;52.272;9.746;2023-08-06T12:59:13;30.40;46.10
16517;DHT22;8371;52.272;9.746;2023-08-06T13:01:39;30.10;46.30
16517;DHT22;8371;52.272;9.746;2023-08-06T13:04:05;29.80;46.80
16517;DHT22;8371;52.272;9.746;2023-08-06T13:06:31;29.40;47.40
16517;DHT22;8371;52.272;9.746;2023-08-06T13:08:58;29.10;48.00
16517;DHT22;8371;52.272;9.746;2023-08-06T13:11:24;28.80;48.30
16517;DHT22;8371;52.272;9.746;2023-08-06T13:13:50;28.60;48.90
16517;DHT22;8371;52.272;9.746;2023-08-06T13:16:15;28.40;49.40
16517;DHT22;8371;52.272;9.746;2023-08-06T13:18:41;28.20;49.60
16517;DHT22;8371;52.272;9.746;2023-08-06T13:21:07;28.00;50.10
16517;DHT22;8371;52.272;9.746;2023-08-06T13:23:32;27.90;50.60
16517;DHT22;8371;52.272;9.746;2023-08-06T13:25:58;27.80;50.80
16517;DHT22;8371;52.272;9.746;2023-08-06T13:28:24;27.90;51.00
16517;DHT22;8371;52.272;9.746;2023-08-06T13:30:50;27.70;50.70
16517;DHT22;8371;52.272;9.746;2023-08-06T13:33:16;27.60;51.00
16517;DHT22;8371;52.272;9.746;2023-08-06T13:35:42;27.60;51.10
16517;DHT22;8371;52.272;9.746;2023-08-06T13:38:07;27.50;51.10
16517;DHT22;8371;52.272;9.746;2023-08-06T13:40:34;27.40;50.90
16517;DHT22;8371;52.272;9.746;2023-08-06T13:43:00;27.40;51.20
16517;DHT22;8371;52.272;9.746;2023-08-06T13:45:25;27.30;51.60
16517;DHT22;8371;52.272;9.746;2023-08-06T13:47:51;27.20;51.70
16517;DHT22;8371;52.272;9.746;2023-08-06T13:50:17;27.20;52.30
16517;DHT22;8371;52.272;9.746;2023-08-06T13:52:42;27.20;51.80
16517;DHT22;8371;52.272;9.746;2023-08-06T13:55:08;27.20;52.00
16517;DHT22;8371;52.272;9.746;2023-08-06T13:57:34;27.20;52.50
16517;DHT22;8371;52.272;9.746;2023-08-06T14:00:01;27.20;52.00
16517;DHT22;8371;52.272;9.746;2023-08-06T14:02:26;27.20;52.30
16517;DHT22;8371;52.272;9.746;2023-08-06T14:04:53;27.30;52.20
16517;DHT22;8371;52.272;9.746;2023-08-06T14:07:19;27.40;52.10
16517;DHT22;8371;52.272;9.746;2023-08-06T14:09:45;27.40;52.10
16517;DHT22;8371;52.272;9.746;2023-08-06T14:12:13;27.50;52.00
16517;DHT22;8371;52.272;9.746;2023-08-06T14:14:39;27.60;52.00
16517;DHT22;8371;52.272;9.746;2023-08-06T14:17:05;27.80;51.80
16517;DHT22;8371;52.272;9.746;2023-08-06T14:19:31;27.90;51.80
16517;DHT22;8371;52.272;9.746;2023-08-06T14:21:57;28.00;51.40
16517;DHT22;8371;52.272;9.746;2023-08-06T14:24:23;28.10;51.30
16517;DHT22;8371;52.272;9.746;2023-08-06T14:26:48;28.10;51.00
16517;DHT22;8371;52.272;9.746;2023-08-06T14:29:14;28.10;50.80
16517;DHT22;8371;52.272;9.746;2023-08-06T14:31:40;28.10;50.50
16517;DHT22;8371;52.272;9.746;2023-08-06T14:34:06;28.10;50.20
16517;DHT22;8371;52.272;9.746;2023-08-06T14:36:32;28.10;50.20
16517;DHT22;8371;52.272;9.746;2023-08-06T14:38:58;28.00;50.40
16517;DHT22;8371;52.272;9.746;2023-08-06T14:41:23;28.00;50.60
16517;DHT22;8371;52.272;9.746;2023-08-06T14:43:50;27.90;50.70
16517;DHT22;8371;52.272;9.746;2023-08-06T14:46:16;27.80;51.20
16517;DHT22;8371;52.272;9.746;2023-08-06T14:48:42;27.70;50.40
16517;DHT22;8371;52.272;9.746;2023-08-06T14:51:10;27.60;50.60
16517;DHT22;8371;52.272;9.746;2023-08-06T14:53:36;27.40;50.30
16517;DHT22;8371;52.272;9.746;2023-08-06T14:56:02;27.10;50.30
16517;DHT22;8371;52.272;9.746;2023-08-06T14:58:28;26.80;50.60
16517;DHT22;8371;52.272;9.746;2023-08-06T15:00:53;26.50;51.30
16517;DHT22;8371;52.272;9.746;2023-08-06T15:03:19;26.20;52.10
16517;DHT22;8371;52.272;9.746;2023-08-06T15:05:48;26.00;52.60
16517;DHT22;8371;52.272;9.746;2023-08-06T15:08:14;25.90;52.70
16517;DHT22;8371;52.272;9.746;2023-08-06T15:10:40;25.80;52.80
16517;DHT22;8371;52.272;9.746;2023-08-06T15:13:06;25.70;53.00
16517;DHT22;8371;52.272;9.746;2023-08-06T15:15:32;25.60;52.60
16517;DHT22;8371;52.272;9.746;2023-08-06T15:17:57;25.40;52.60
16517;DHT22;8371;52.272;9.746;2023-08-06T15:20:24;25.30;52.50
16517;DHT22;8371;52.272;9.746;2023-08-06T15:22:50;25.20;52.40
16517;DHT22;8371;52.272;9.746;2023-08-06T15:25:15;25.10;52.40
16517;DHT22;8371;52.272;9.746;2023-08-06T15:27:41;25.00;52.30
16517;DHT22;8371;52.272;9.746;2023-08-06T15:30:07;24.90;52.40
16517;DHT22;8371;52.272;9.746;2023-08-06T15:32:33;24.80;52.60
16517;DHT22;8371;52.272;9.746;2023-08-06T15:34:59;24.70;52.70
16517;DHT22;8371;52.272;9.746;2023-08-06T15:37:24;24.50;52.70
16517;DHT22;8371;52.272;9.746;2023-08-06T15:39:51;24.40;52.80
16517;DHT22;8371;52.272;9.746;2023-08-06T15:42:17;24.30;52.80
16517;DHT22;8371;52.272;9.746;2023-08-06T15:44:43;24.30;53.10
16517;DHT22;8371;52.272;9.746;2023-08-06T15:47:08;24.20;53.10
16517;DHT22;8371;52.272;9.746;2023-08-06T15:49:35;24.10;53.00
16517;DHT22;8371;52.272;9.746;2023-08-06T15:52:01;24.10;53.10